createdAt,value
2022-08-07T00:00:47.443Z,2.70
2022-08-07T00:11:06.478Z,2.70
2022-08-07T00:21:56.126Z,2.80
2022-08-07T00:31:38.456Z,3.40
2022-08-07T00:42:02.497Z,5.50
2022-08-07T00:52:11.943Z,4.60
2022-08-07T01:02:32.116Z,3.10
2022-08-07T01:23:12.195Z,2.10
2022-08-07T01:33:20.030Z,2.30
2022-08-07T01:43:38.581Z,2.30
2022-08-07T01:54:12.119Z,2.30
2022-08-07T02:04:26.590Z,2.00
2022-08-07T02:14:50.031Z,2.10
2022-08-07T02:25:07.124Z,2.30
2022-08-07T02:36:28.806Z,2.00
2022-08-07T02:56:36.343Z,2.10
2022-08-07T03:06:51.483Z,2.70
2022-08-07T03:16:59.514Z,2.40
2022-08-07T03:27:05.217Z,2.30
2022-08-07T03:47:47.597Z,2.40
2022-08-07T03:58:08.729Z,2.40
2022-08-07T04:08:25.858Z,2.60
2022-08-07T04:18:56.363Z,2.80
2022-08-07T04:28:54.780Z,2.40
2022-08-07T04:39:09.644Z,2.90
2022-08-07T04:49:57.516Z,2.90
2022-08-07T05:00:47.124Z,3.00
2022-08-07T05:11:19.445Z,2.70
2022-08-07T05:21:58.935Z,3.00
2022-08-07T05:32:00.105Z,2.80
2022-08-07T05:42:15.142Z,3.60
2022-08-07T05:52:42.798Z,2.40
2022-08-07T06:02:54.696Z,2.20
2022-08-07T06:13:06.952Z,1.60
2022-08-07T06:24:46.309Z,1.80
2022-08-07T06:34:30.599Z,1.60
2022-08-07T06:45:44.658Z,1.20
2022-08-07T06:55:53.418Z,1.10
2022-08-07T07:16:49.982Z,1.00
2022-08-07T07:26:59.387Z,1.10
2022-08-07T07:47:51.779Z,1.20
2022-08-07T07:58:02.140Z,1.00
2022-08-07T08:08:05.874Z,1.10
2022-08-07T08:18:32.438Z,1.20
2022-08-07T08:28:44.924Z,1.00
2022-08-07T08:39:05.177Z,1.20
2022-08-07T08:50:02.747Z,1.10
2022-08-07T09:00:12.440Z,1.00
2022-08-07T09:10:25.072Z,1.10
2022-08-07T09:20:57.975Z,1.20
2022-08-07T09:31:57.482Z,1.00
2022-08-07T09:42:30.323Z,1.20
2022-08-07T10:04:05.294Z,1.10
2022-08-07T10:14:36.564Z,1.10
2022-08-07T10:25:03.410Z,0.90
2022-08-07T10:35:55.613Z,1.10
2022-08-07T10:46:23.172Z,2.40
2022-08-07T10:56:58.910Z,1.20
2022-08-07T11:07:58.784Z,1.10
2022-08-07T11:18:04.382Z,1.00
2022-08-07T11:28:32.094Z,1.00
2022-08-07T11:39:24.189Z,1.00
2022-08-07T11:50:30.677Z,1.00
2022-08-07T12:01:12.799Z,1.10
2022-08-07T12:12:46.676Z,1.00
2022-08-07T12:23:09.053Z,0.80
2022-08-07T12:34:01.043Z,1.00
2022-08-07T12:44:10.397Z,1.00
2022-08-07T12:54:41.321Z,0.90
2022-08-07T13:05:01.796Z,0.90
2022-08-07T13:15:31.624Z,0.90
2022-08-07T13:25:54.195Z,1.20
2022-08-07T13:36:17.680Z,1.10
2022-08-07T13:46:49.202Z,1.00
2022-08-07T13:57:23.874Z,1.30
2022-08-07T14:07:34.087Z,1.10
2022-08-07T14:18:28.611Z,1.10
2022-08-07T14:28:57.290Z,1.40
2022-08-07T14:39:12.561Z,1.20
2022-08-07T14:50:54.182Z,1.20
2022-08-07T15:01:00.330Z,1.20
2022-08-07T15:11:54.409Z,1.10
2022-08-07T15:22:29.228Z,1.10
2022-08-07T15:43:53.742Z,1.20
2022-08-07T15:54:02.385Z,0.90
2022-08-07T16:04:15.784Z,1.20
2022-08-07T16:14:28.591Z,1.40
2022-08-07T16:24:52.299Z,1.30
2022-08-07T16:35:51.661Z,1.40
2022-08-07T16:47:07.832Z,1.20
2022-08-07T16:57:15.328Z,1.10
2022-08-07T17:07:55.445Z,1.10
2022-08-07T17:18:14.151Z,1.60
2022-08-07T17:28:31.511Z,2.30
2022-08-07T17:39:15.329Z,1.60
2022-08-07T17:49:26.096Z,1.30
2022-08-07T18:12:17.774Z,1.90
2022-08-07T18:34:40.728Z,1.50
2022-08-07T18:45:44.319Z,2.00
2022-08-07T18:55:56.066Z,2.10
2022-08-07T19:17:54.526Z,2.60
2022-08-07T19:30:53.557Z,2.40
2022-08-07T19:39:09.667Z,2.60
2022-08-07T19:49:57.935Z,2.50
2022-08-07T20:10:54.966Z,2.40
2022-08-07T20:21:14.503Z,2.30
2022-08-07T20:31:26.158Z,2.30
2022-08-07T20:41:34.000Z,2.10
2022-08-07T21:04:18.744Z,2.40
2022-08-07T21:15:18.715Z,2.40
2022-08-07T21:26:12.288Z,2.40
2022-08-07T21:36:35.008Z,2.40
2022-08-07T21:47:12.109Z,2.30
2022-08-07T21:57:51.731Z,2.50
2022-08-07T22:07:59.643Z,2.70
2022-08-07T22:18:20.540Z,3.00
2022-08-07T22:28:34.026Z,3.70
2022-08-07T22:38:52.539Z,5.80
2022-08-07T22:49:37.839Z,5.60
2022-08-07T22:59:58.618Z,6.10
2022-08-07T23:10:38.128Z,6.20
2022-08-07T23:21:07.845Z,6.10
2022-08-07T23:32:50.264Z,5.20
2022-08-07T23:42:36.765Z,4.80
2022-08-07T23:53:22.877Z,4.00
